sensor_id;sensor_type;location;lat;lon;timestamp;P1;durP1;ratioP1;P2;durP2;ratioP2
4547;SDS011;2286;51.570;7.090;2024-01-30T00:01:00;16.43;;;14.53;;
4547;SDS011;2286;51.570;7.090;2024-01-30T00:03:27;15.70;;;14.00;;
4547;SDS011;2286;51.570;7.090;2024-01-30T00:05:55;18.87;;;15.13;;
4547;SDS011;2286;51.570;7.090;2024-01-30T00:08:22;16.00;;;14.40;;
4547;SDS011;2286;51.570;7.090;2024-01-30T00:10:49;15.73;;;14.13;;
4547;SDS011;2286;51.570;7.090;2024-01-30T00:13:16;16.10;;;14.43;;
4547;SDS011;2286;51.570;7.090;2024-01-30T00:15:46;16.70;;;15.00;;
4547;SDS011;2286;51.570;7.090;2024-01-30T00:18:13;16.23;;;14.57;;
4547;SDS011;2286;51.570;7.090;2024-01-30T00:20:41;16.77;;;13.80;;
4547;SDS011;2286;51.570;7.090;2024-01-30T00:23:09;17.17;;;14.73;;
4547;SDS011;2286;51.570;7.090;2024-01-30T00:25:36;14.93;;;13.40;;
4547;SDS011;2286;51.570;7.090;2024-01-30T00:28:03;16.40;;;14.23;;
4547;SDS011;2286;51.570;7.090;2024-01-30T00:30:30;16.40;;;14.70;;
4547;SDS011;2286;51.570;7.090;2024-01-30T00:32:59;14.13;;;12.73;;
4547;SDS011;2286;51.570;7.090;2024-01-30T00:35:26;15.07;;;13.40;;
4547;SDS011;2286;51.570;7.090;2024-01-30T00:37:54;13.60;;;12.20;;
4547;SDS011;2286;51.570;7.090;2024-01-30T00:40:22;15.43;;;13.83;;
4547;SDS011;2286;51.570;7.090;2024-01-30T00:42:49;13.63;;;12.23;;
4547;SDS011;2286;51.570;7.090;2024-01-30T00:45:16;14.70;;;12.87;;
4547;SDS011;2286;51.570;7.090;2024-01-30T00:47:43;17.03;;;13.77;;
4547;SDS011;2286;51.570;7.090;2024-01-30T00:50:12;15.30;;;13.20;;
4547;SDS011;2286;51.570;7.090;2024-01-30T00:52:39;13.53;;;12.10;;
4547;SDS011;2286;51.570;7.090;2024-01-30T00:55:07;14.57;;;13.07;;
4547;SDS011;2286;51.570;7.090;2024-01-30T00:57:34;13.10;;;11.70;;
4547;SDS011;2286;51.570;7.090;2024-01-30T01:00:00;14.20;;;12.60;;
4547;SDS011;2286;51.570;7.090;2024-01-30T01:02:28;14.33;;;12.50;;
4547;SDS011;2286;51.570;7.090;2024-01-30T01:04:55;13.27;;;11.90;;
4547;SDS011;2286;51.570;7.090;2024-01-30T01:07:24;13.50;;;12.03;;
4547;SDS011;2286;51.570;7.090;2024-01-30T01:09:51;13.10;;;11.70;;
4547;SDS011;2286;51.570;7.090;2024-01-30T01:12:18;13.03;;;11.57;;
4547;SDS011;2286;51.570;7.090;2024-01-30T01:14:45;13.67;;;11.73;;
4547;SDS011;2286;51.570;7.090;2024-01-30T01:17:12;13.00;;;11.60;;
4547;SDS011;2286;51.570;7.090;2024-01-30T01:19:39;12.57;;;10.83;;
4547;SDS011;2286;51.570;7.090;2024-01-30T01:22:07;12.47;;;11.17;;
4547;SDS011;2286;51.570;7.090;2024-01-30T01:24:36;12.80;;;11.20;;
4547;SDS011;2286;51.570;7.090;2024-01-30T01:27:03;16.37;;;12.20;;
4547;SDS011;2286;51.570;7.090;2024-01-30T01:29:31;13.07;;;11.50;;
4547;SDS011;2286;51.570;7.090;2024-01-30T01:31:58;11.80;;;10.70;;
4547;SDS011;2286;51.570;7.090;2024-01-30T01:34:25;12.53;;;11.23;;
4547;SDS011;2286;51.570;7.090;2024-01-30T01:36:52;12.70;;;11.50;;
4547;SDS011;2286;51.570;7.090;2024-01-30T01:39:21;12.13;;;10.90;;
4547;SDS011;2286;51.570;7.090;2024-01-30T01:41:50;11.77;;;10.50;;
4547;SDS011;2286;51.570;7.090;2024-01-30T01:44:18;12.90;;;10.60;;
4547;SDS011;2286;51.570;7.090;2024-01-30T01:46:45;11.80;;;10.40;;
4547;SDS011;2286;51.570;7.090;2024-01-30T01:49:12;14.80;;;11.40;;
4547;SDS011;2286;51.570;7.090;2024-01-30T01:51:40;12.03;;;10.63;;
4547;SDS011;2286;51.570;7.090;2024-01-30T01:54:09;15.07;;;10.60;;
4547;SDS011;2286;51.570;7.090;2024-01-30T01:56:37;13.13;;;10.20;;
4547;SDS011;2286;51.570;7.090;2024-01-30T01:59:07;11.97;;;10.60;;
4547;SDS011;2286;51.570;7.090;2024-01-30T02:01:34;8.40;;;7.57;;
4547;SDS011;2286;51.570;7.090;2024-01-30T02:04:03;12.27;;;10.93;;
4547;SDS011;2286;51.570;7.090;2024-01-30T02:06:31;15.00;;;11.37;;
4547;SDS011;2286;51.570;7.090;2024-01-30T02:08:59;11.30;;;10.20;;
4547;SDS011;2286;51.570;7.090;2024-01-30T02:11:26;11.23;;;10.23;;
4547;SDS011;2286;51.570;7.090;2024-01-30T02:13:54;10.57;;;9.57;;
4547;SDS011;2286;51.570;7.090;2024-01-30T02:16:22;11.93;;;10.67;;
4547;SDS011;2286;51.570;7.090;2024-01-30T02:18:49;12.73;;;10.13;;
4547;SDS011;2286;51.570;7.090;2024-01-30T02:21:18;11.33;;;10.33;;
4547;SDS011;2286;51.570;7.090;2024-01-30T02:23:46;11.87;;;10.57;;
4547;SDS011;2286;51.570;7.090;2024-01-30T02:26:14;12.30;;;11.17;;
4547;SDS011;2286;51.570;7.090;2024-01-30T02:28:41;11.53;;;10.30;;
4547;SDS011;2286;51.570;7.090;2024-01-30T02:31:08;11.70;;;10.50;;
4547;SDS011;2286;51.570;7.090;2024-01-30T02:33:35;12.13;;;10.10;;
4547;SDS011;2286;51.570;7.090;2024-01-30T02:36:02;11.60;;;10.50;;
4547;SDS011;2286;51.570;7.090;2024-01-30T02:38:31;12.03;;;10.73;;
4547;SDS011;2286;51.570;7.090;2024-01-30T02:40:58;11.50;;;10.30;;
4547;SDS011;2286;51.570;7.090;2024-01-30T02:43:25;11.30;;;9.97;;
4547;SDS011;2286;51.570;7.090;2024-01-30T02:45:52;11.10;;;10.10;;
4547;SDS011;2286;51.570;7.090;2024-01-30T02:48:19;11.30;;;9.90;;
4547;SDS011;2286;51.570;7.090;2024-01-30T02:50:46;11.97;;;10.30;;
4547;SDS011;2286;51.570;7.090;2024-01-30T02:53:13;12.83;;;10.40;;
4547;SDS011;2286;51.570;7.090;2024-01-30T02:55:42;10.63;;;9.63;;
4547;SDS011;2286;51.570;7.090;2024-01-30T02:58:09;11.83;;;10.43;;
4547;SDS011;2286;51.570;7.090;2024-01-30T03:00:36;13.37;;;10.93;;
4547;SDS011;2286;51.570;7.090;2024-01-30T03:03:03;13.13;;;11.30;;
4547;SDS011;2286;51.570;7.090;2024-01-30T03:05:30;11.40;;;10.30;;
4547;SDS011;2286;51.570;7.090;2024-01-30T03:07:57;11.57;;;10.27;;
4547;SDS011;2286;51.570;7.090;2024-01-30T03:10:25;12.20;;;11.00;;
4547;SDS011;2286;51.570;7.090;2024-01-30T03:12:53;11.60;;;10.40;;
4547;SDS011;2286;51.570;7.090;2024-01-30T03:15:20;13.83;;;11.77;;
4547;SDS011;2286;51.570;7.090;2024-01-30T03:17:48;11.53;;;10.27;;
4547;SDS011;2286;51.570;7.090;2024-01-30T03:20:15;12.27;;;10.97;;
4547;SDS011;2286;51.570;7.090;2024-01-30T03:22:42;12.20;;;11.00;;
4547;SDS011;2286;51.570;7.090;2024-01-30T03:25:10;11.60;;;10.43;;
4547;SDS011;2286;51.570;7.090;2024-01-30T03:27:37;14.53;;;11.40;;
4547;SDS011;2286;51.570;7.090;2024-01-30T03:30:06;12.53;;;10.60;;
4547;SDS011;2286;51.570;7.090;2024-01-30T03:32:34;11.73;;;10.53;;
4547;SDS011;2286;51.570;7.090;2024-01-30T03:35:01;11.90;;;10.70;;
4547;SDS011;2286;51.570;7.090;2024-01-30T03:37:28;12.03;;;10.83;;
4547;SDS011;2286;51.570;7.090;2024-01-30T03:39:55;12.00;;;10.70;;
4547;SDS011;2286;51.570;7.090;2024-01-30T03:42:22;11.40;;;10.20;;
4547;SDS011;2286;51.570;7.090;2024-01-30T03:44:49;12.27;;;10.40;;
4547;SDS011;2286;51.570;7.090;2024-01-30T03:47:20;12.37;;;10.80;;
4547;SDS011;2286;51.570;7.090;2024-01-30T03:49:47;11.87;;;10.67;;
4547;SDS011;2286;51.570;7.090;2024-01-30T03:52:14;11.90;;;10.17;;
4547;SDS011;2286;51.570;7.090;2024-01-30T03:54:41;11.17;;;10.07;;
4547;SDS011;2286;51.570;7.090;2024-01-30T03:57:08;12.30;;;11.10;;
4547;SDS011;2286;51.570;7.090;2024-01-30T03:59:35;12.77;;;11.63;;
4547;SDS011;2286;51.570;7.090;2024-01-30T04:02:02;13.00;;;11.60;;
4547;SDS011;2286;51.570;7.090;2024-01-30T04:04:31;11.77;;;10.13;;
4547;SDS011;2286;51.570;7.090;2024-01-30T04:06:58;12.97;;;11.27;;
4547;SDS011;2286;51.570;7.090;2024-01-30T04:09:25;12.30;;;10.33;;
4547;SDS011;2286;51.570;7.090;2024-01-30T04:11:53;12.23;;;10.93;;
4547;SDS011;2286;51.570;7.090;2024-01-30T04:14:20;14.93;;;11.43;;
4547;SDS011;2286;51.570;7.090;2024-01-30T04:16:47;11.50;;;10.30;;
4547;SDS011;2286;51.570;7.090;2024-01-30T04:19:14;12.40;;;11.10;;
4547;SDS011;2286;51.570;7.090;2024-01-30T04:21:43;13.00;;;11.60;;
4547;SDS011;2286;51.570;7.090;2024-01-30T04:24:10;14.80;;;11.77;;
4547;SDS011;2286;51.570;7.090;2024-01-30T04:26:37;13.00;;;11.73;;
4547;SDS011;2286;51.570;7.090;2024-01-30T04:29:04;17.97;;;13.50;;
4547;SDS011;2286;51.570;7.090;2024-01-30T04:31:31;13.20;;;11.90;;
4547;SDS011;2286;51.570;7.090;2024-01-30T04:33:58;13.60;;;11.50;;
4547;SDS011;2286;51.570;7.090;2024-01-30T04:36:25;12.77;;;11.47;;
4547;SDS011;2286;51.570;7.090;2024-01-30T04:38:53;13.37;;;11.97;;
4547;SDS011;2286;51.570;7.090;2024-01-30T04:41:20;16.87;;;12.90;;
4547;SDS011;2286;51.570;7.090;2024-01-30T04:43:47;12.60;;;10.70;;
4547;SDS011;2286;51.570;7.090;2024-01-30T04:46:14;13.70;;;11.97;;
4547;SDS011;2286;51.570;7.090;2024-01-30T04:48:41;13.30;;;12.00;;
4547;SDS011;2286;51.570;7.090;2024-01-30T04:51:08;14.40;;;12.03;;
4547;SDS011;2286;51.570;7.090;2024-01-30T04:53:35;12.33;;;10.90;;
4547;SDS011;2286;51.570;7.090;2024-01-30T04:56:04;13.50;;;11.90;;
4547;SDS011;2286;51.570;7.090;2024-01-30T04:58:31;13.33;;;11.93;;
4547;SDS011;2286;51.570;7.090;2024-01-30T05:00:58;12.97;;;11.63;;
4547;SDS011;2286;51.570;7.090;2024-01-30T05:03:25;13.13;;;11.77;;
4547;SDS011;2286;51.570;7.090;2024-01-30T05:05:52;14.03;;;12.47;;
4547;SDS011;2286;51.570;7.090;2024-01-30T05:08:19;18.00;;;12.83;;
4547;SDS011;2286;51.570;7.090;2024-01-30T05:10:46;16.20;;;13.03;;
4547;SDS011;2286;51.570;7.090;2024-01-30T05:13:15;14.10;;;12.27;;
4547;SDS011;2286;51.570;7.090;2024-01-30T05:15:42;13.27;;;11.83;;
4547;SDS011;2286;51.570;7.090;2024-01-30T05:18:09;16.10;;;11.33;;
4547;SDS011;2286;51.570;7.090;2024-01-30T05:20:36;14.43;;;12.27;;
4547;SDS011;2286;51.570;7.090;2024-01-30T05:23:03;17.30;;;12.90;;
4547;SDS011;2286;51.570;7.090;2024-01-30T05:25:30;14.73;;;13.23;;
4547;SDS011;2286;51.570;7.090;2024-01-30T05:27:57;13.00;;;11.63;;
4547;SDS011;2286;51.570;7.090;2024-01-30T05:30:26;13.60;;;12.30;;
4547;SDS011;2286;51.570;7.090;2024-01-30T05:32:53;18.83;;;11.93;;
4547;SDS011;2286;51.570;7.090;2024-01-30T05:35:20;17.90;;;12.50;;
4547;SDS011;2286;51.570;7.090;2024-01-30T05:37:47;13.47;;;12.07;;
4547;SDS011;2286;51.570;7.090;2024-01-30T05:40:15;13.60;;;12.27;;
4547;SDS011;2286;51.570;7.090;2024-01-30T05:42:42;15.83;;;12.33;;
4547;SDS011;2286;51.570;7.090;2024-01-30T05:45:09;13.63;;;12.27;;
4547;SDS011;2286;51.570;7.090;2024-01-30T05:47:38;15.30;;;12.77;;
4547;SDS011;2286;51.570;7.090;2024-01-30T05:50:06;14.33;;;12.93;;
4547;SDS011;2286;51.570;7.090;2024-01-30T05:52:33;13.80;;;12.40;;
4547;SDS011;2286;51.570;7.090;2024-01-30T05:55:00;15.77;;;13.27;;
4547;SDS011;2286;51.570;7.090;2024-01-30T05:57:27;19.90;;;14.43;;
4547;SDS011;2286;51.570;7.090;2024-01-30T05:59:54;14.50;;;13.00;;
4547;SDS011;2286;51.570;7.090;2024-01-30T06:02:21;17.47;;;13.03;;
4547;SDS011;2286;51.570;7.090;2024-01-30T06:04:50;17.30;;;13.33;;
4547;SDS011;2286;51.570;7.090;2024-01-30T06:07:17;14.37;;;12.87;;
4547;SDS011;2286;51.570;7.090;2024-01-30T06:09:44;16.70;;;14.00;;
4547;SDS011;2286;51.570;7.090;2024-01-30T06:12:11;15.20;;;13.60;;
4547;SDS011;2286;51.570;7.090;2024-01-30T06:14:38;14.60;;;13.10;;
4547;SDS011;2286;51.570;7.090;2024-01-30T06:17:07;17.93;;;15.00;;
4547;SDS011;2286;51.570;7.090;2024-01-30T06:19:34;15.00;;;13.20;;
4547;SDS011;2286;51.570;7.090;2024-01-30T06:22:04;14.63;;;13.13;;
4547;SDS011;2286;51.570;7.090;2024-01-30T06:24:31;15.20;;;13.00;;
4547;SDS011;2286;51.570;7.090;2024-01-30T06:26:58;16.30;;;13.30;;
4547;SDS011;2286;51.570;7.090;2024-01-30T06:29:26;17.13;;;13.93;;
4547;SDS011;2286;51.570;7.090;2024-01-30T06:31:53;23.43;;;15.03;;
4547;SDS011;2286;51.570;7.090;2024-01-30T06:34:21;15.60;;;12.77;;
4547;SDS011;2286;51.570;7.090;2024-01-30T06:36:48;15.13;;;13.60;;
4547;SDS011;2286;51.570;7.090;2024-01-30T06:39:16;15.53;;;13.97;;
4547;SDS011;2286;51.570;7.090;2024-01-30T06:41:44;14.87;;;13.37;;
4547;SDS011;2286;51.570;7.090;2024-01-30T06:44:12;13.57;;;12.20;;
4547;SDS011;2286;51.570;7.090;2024-01-30T06:46:39;16.70;;;13.17;;
4547;SDS011;2286;51.570;7.090;2024-01-30T06:49:06;13.77;;;12.27;;
4547;SDS011;2286;51.570;7.090;2024-01-30T06:51:33;13.90;;;12.50;;
4547;SDS011;2286;51.570;7.090;2024-01-30T06:54:00;13.90;;;12.20;;
4547;SDS011;2286;51.570;7.090;2024-01-30T06:56:29;19.60;;;12.37;;
4547;SDS011;2286;51.570;7.090;2024-01-30T06:58:56;16.97;;;12.80;;
4547;SDS011;2286;51.570;7.090;2024-01-30T07:01:27;13.73;;;12.40;;
4547;SDS011;2286;51.570;7.090;2024-01-30T07:03:55;15.53;;;12.70;;
4547;SDS011;2286;51.570;7.090;2024-01-30T07:06:22;15.73;;;13.07;;
4547;SDS011;2286;51.570;7.090;2024-01-30T07:08:49;14.70;;;13.10;;
4547;SDS011;2286;51.570;7.090;2024-01-30T07:11:18;15.10;;;13.50;;
4547;SDS011;2286;51.570;7.090;2024-01-30T07:13:48;16.13;;;12.47;;
4547;SDS011;2286;51.570;7.090;2024-01-30T07:16:15;16.80;;;12.70;;
4547;SDS011;2286;51.570;7.090;2024-01-30T07:18:42;17.87;;;12.43;;
4547;SDS011;2286;51.570;7.090;2024-01-30T07:21:09;19.13;;;12.60;;
4547;SDS011;2286;51.570;7.090;2024-01-30T07:23:36;19.13;;;13.80;;
4547;SDS011;2286;51.570;7.090;2024-01-30T07:26:04;13.70;;;12.30;;
4547;SDS011;2286;51.570;7.090;2024-01-30T07:28:31;12.17;;;10.90;;
4547;SDS011;2286;51.570;7.090;2024-01-30T07:31:00;14.90;;;12.10;;
4547;SDS011;2286;51.570;7.090;2024-01-30T07:33:28;14.57;;;12.50;;
4547;SDS011;2286;51.570;7.090;2024-01-30T07:35:55;12.90;;;10.83;;
4547;SDS011;2286;51.570;7.090;2024-01-30T07:38:22;14.30;;;12.37;;
4547;SDS011;2286;51.570;7.090;2024-01-30T07:40:49;15.33;;;12.10;;
4547;SDS011;2286;51.570;7.090;2024-01-30T07:43:16;14.23;;;11.40;;
4547;SDS011;2286;51.570;7.090;2024-01-30T07:45:45;13.70;;;12.10;;
4547;SDS011;2286;51.570;7.090;2024-01-30T07:48:13;13.27;;;11.73;;
4547;SDS011;2286;51.570;7.090;2024-01-30T07:50:40;14.00;;;12.43;;
4547;SDS011;2286;51.570;7.090;2024-01-30T07:53:07;16.20;;;11.80;;
4547;SDS011;2286;51.570;7.090;2024-01-30T07:55:34;15.27;;;12.50;;
4547;SDS011;2286;51.570;7.090;2024-01-30T07:58:01;13.87;;;12.47;;
4547;SDS011;2286;51.570;7.090;2024-01-30T08:00:29;19.73;;;12.47;;
4547;SDS011;2286;51.570;7.090;2024-01-30T08:02:57;16.10;;;11.50;;
4547;SDS011;2286;51.570;7.090;2024-01-30T08:05:25;16.10;;;11.70;;
4547;SDS011;2286;51.570;7.090;2024-01-30T08:07:52;15.27;;;10.50;;
4547;SDS011;2286;51.570;7.090;2024-01-30T08:10:19;13.03;;;11.70;;
4547;SDS011;2286;51.570;7.090;2024-01-30T08:12:47;14.77;;;11.27;;
4547;SDS011;2286;51.570;7.090;2024-01-30T08:15:14;13.17;;;11.27;;
4547;SDS011;2286;51.570;7.090;2024-01-30T08:17:41;10.97;;;9.87;;
4547;SDS011;2286;51.570;7.090;2024-01-30T08:20:10;14.17;;;10.37;;
4547;SDS011;2286;51.570;7.090;2024-01-30T08:22:39;10.60;;;9.50;;
4547;SDS011;2286;51.570;7.090;2024-01-30T08:25:06;14.17;;;11.13;;
4547;SDS011;2286;51.570;7.090;2024-01-30T08:27:34;14.47;;;10.40;;
4547;SDS011;2286;51.570;7.090;2024-01-30T08:30:03;15.00;;;10.17;;
4547;SDS011;2286;51.570;7.090;2024-01-30T08:32:31;15.00;;;10.67;;
4547;SDS011;2286;51.570;7.090;2024-01-30T08:34:59;11.10;;;10.00;;
4547;SDS011;2286;51.570;7.090;2024-01-30T08:37:28;10.50;;;8.97;;
4547;SDS011;2286;51.570;7.090;2024-01-30T08:39:57;13.37;;;9.30;;
4547;SDS011;2286;51.570;7.090;2024-01-30T08:42:24;19.93;;;10.53;;
4547;SDS011;2286;51.570;7.090;2024-01-30T08:44:51;14.87;;;10.60;;
4547;SDS011;2286;51.570;7.090;2024-01-30T08:47:18;15.07;;;9.13;;
4547;SDS011;2286;51.570;7.090;2024-01-30T08:49:45;10.30;;;8.07;;
4547;SDS011;2286;51.570;7.090;2024-01-30T08:52:12;10.67;;;9.40;;
4547;SDS011;2286;51.570;7.090;2024-01-30T08:54:39;8.77;;;7.80;;
4547;SDS011;2286;51.570;7.090;2024-01-30T08:57:07;11.93;;;8.07;;
4547;SDS011;2286;51.570;7.090;2024-01-30T08:59:35;9.70;;;8.00;;
4547;SDS011;2286;51.570;7.090;2024-01-30T09:02:02;9.67;;;7.80;;
4547;SDS011;2286;51.570;7.090;2024-01-30T09:04:29;11.97;;;7.83;;
4547;SDS011;2286;51.570;7.090;2024-01-30T09:06:56;8.50;;;7.60;;
4547;SDS011;2286;51.570;7.090;2024-01-30T09:09:23;8.50;;;6.53;;
4547;SDS011;2286;51.570;7.090;2024-01-30T09:11:50;14.13;;;7.23;;
4547;SDS011;2286;51.570;7.090;2024-01-30T09:14:19;10.80;;;6.83;;
4547;SDS011;2286;51.570;7.090;2024-01-30T09:16:46;8.80;;;6.90;;
4547;SDS011;2286;51.570;7.090;2024-01-30T09:19:14;10.27;;;7.50;;
4547;SDS011;2286;51.570;7.090;2024-01-30T09:21:41;11.30;;;7.07;;
4547;SDS011;2286;51.570;7.090;2024-01-30T09:24:08;9.80;;;7.60;;
4547;SDS011;2286;51.570;7.090;2024-01-30T09:26:35;9.07;;;6.07;;
4547;SDS011;2286;51.570;7.090;2024-01-30T09:29:02;11.20;;;6.90;;
4547;SDS011;2286;51.570;7.090;2024-01-30T09:31:30;9.70;;;6.70;;
4547;SDS011;2286;51.570;7.090;2024-01-30T09:33:57;7.63;;;6.60;;
4547;SDS011;2286;51.570;7.090;2024-01-30T09:36:24;8.10;;;6.20;;
4547;SDS011;2286;51.570;7.090;2024-01-30T09:38:52;8.23;;;6.60;;
4547;SDS011;2286;51.570;7.090;2024-01-30T09:41:19;14.03;;;7.10;;
4547;SDS011;2286;51.570;7.090;2024-01-30T09:43:50;5.80;;;5.30;;
4547;SDS011;2286;51.570;7.090;2024-01-30T09:46:17;10.60;;;6.50;;
4547;SDS011;2286;51.570;7.090;2024-01-30T09:48:48;7.53;;;6.10;;
4547;SDS011;2286;51.570;7.090;2024-01-30T09:51:15;7.13;;;5.70;;
4547;SDS011;2286;51.570;7.090;2024-01-30T09:53:43;9.90;;;5.23;;
4547;SDS011;2286;51.570;7.090;2024-01-30T09:56:12;8.20;;;5.30;;
4547;SDS011;2286;51.570;7.090;2024-01-30T09:58:39;7.47;;;5.23;;
4547;SDS011;2286;51.570;7.090;2024-01-30T10:01:07;7.63;;;5.73;;
4547;SDS011;2286;51.570;7.090;2024-01-30T10:03:34;9.50;;;5.70;;
4547;SDS011;2286;51.570;7.090;2024-01-30T10:06:02;9.93;;;5.50;;
4547;SDS011;2286;51.570;7.090;2024-01-30T10:08:29;9.87;;;5.50;;
4547;SDS011;2286;51.570;7.090;2024-01-30T10:10:56;6.57;;;5.30;;
4547;SDS011;2286;51.570;7.090;2024-01-30T10:13:23;6.37;;;5.20;;
4547;SDS011;2286;51.570;7.090;2024-01-30T10:15:52;7.67;;;4.70;;
4547;SDS011;2286;51.570;7.090;2024-01-30T10:18:20;5.77;;;5.13;;
4547;SDS011;2286;51.570;7.090;2024-01-30T10:20:49;7.00;;;5.30;;
4547;SDS011;2286;51.570;7.090;2024-01-30T10:23:17;6.27;;;4.60;;
4547;SDS011;2286;51.570;7.090;2024-01-30T10:25:44;5.80;;;4.60;;
4547;SDS011;2286;51.570;7.090;2024-01-30T10:28:11;7.10;;;4.90;;
4547;SDS011;2286;51.570;7.090;2024-01-30T10:30:38;6.60;;;4.83;;
4547;SDS011;2286;51.570;7.090;2024-01-30T10:33:05;8.13;;;5.00;;
4547;SDS011;2286;51.570;7.090;2024-01-30T10:35:32;7.57;;;4.73;;
4547;SDS011;2286;51.570;7.090;2024-01-30T10:38:00;10.03;;;4.63;;
4547;SDS011;2286;51.570;7.090;2024-01-30T10:40:29;5.80;;;4.30;;
4547;SDS011;2286;51.570;7.090;2024-01-30T10:42:57;7.43;;;4.43;;
4547;SDS011;2286;51.570;7.090;2024-01-30T10:45:27;4.77;;;4.33;;
4547;SDS011;2286;51.570;7.090;2024-01-30T10:47:56;5.13;;;4.57;;
4547;SDS011;2286;51.570;7.090;2024-01-30T10:50:26;6.43;;;4.40;;
4547;SDS011;2286;51.570;7.090;2024-01-30T10:52:53;5.93;;;5.17;;
4547;SDS011;2286;51.570;7.090;2024-01-30T10:55:22;6.00;;;4.83;;
4547;SDS011;2286;51.570;7.090;2024-01-30T10:57:51;5.73;;;4.63;;
4547;SDS011;2286;51.570;7.090;2024-01-30T11:00:19;7.70;;;5.37;;
4547;SDS011;2286;51.570;7.090;2024-01-30T11:02:48;4.87;;;4.30;;
4547;SDS011;2286;51.570;7.090;2024-01-30T11:05:23;6.43;;;5.03;;
4547;SDS011;2286;51.570;7.090;2024-01-30T11:07:51;6.20;;;5.57;;
4547;SDS011;2286;51.570;7.090;2024-01-30T11:10:18;10.93;;;4.70;;
4547;SDS011;2286;51.570;7.090;2024-01-30T11:12:45;8.00;;;5.80;;
4547;SDS011;2286;51.570;7.090;2024-01-30T11:15:14;6.33;;;4.83;;
4547;SDS011;2286;51.570;7.090;2024-01-30T11:17:43;6.60;;;5.57;;
4547;SDS011;2286;51.570;7.090;2024-01-30T11:20:11;9.40;;;6.10;;
4547;SDS011;2286;51.570;7.090;2024-01-30T11:22:41;10.10;;;5.43;;
4547;SDS011;2286;51.570;7.090;2024-01-30T11:25:13;8.90;;;5.37;;
4547;SDS011;2286;51.570;7.090;2024-01-30T11:27:41;8.50;;;5.57;;
4547;SDS011;2286;51.570;7.090;2024-01-30T11:30:08;7.90;;;5.60;;
4547;SDS011;2286;51.570;7.090;2024-01-30T11:32:37;8.60;;;6.23;;
4547;SDS011;2286;51.570;7.090;2024-01-30T11:35:05;10.87;;;5.90;;
4547;SDS011;2286;51.570;7.090;2024-01-30T11:37:35;12.37;;;6.30;;
4547;SDS011;2286;51.570;7.090;2024-01-30T11:40:04;17.13;;;5.90;;
4547;SDS011;2286;51.570;7.090;2024-01-30T11:42:33;9.07;;;6.60;;
4547;SDS011;2286;51.570;7.090;2024-01-30T11:45:05;7.40;;;5.80;;
4547;SDS011;2286;51.570;7.090;2024-01-30T11:47:34;9.70;;;6.40;;
4547;SDS011;2286;51.570;7.090;2024-01-30T11:50:03;11.83;;;6.10;;
4547;SDS011;2286;51.570;7.090;2024-01-30T11:52:31;8.00;;;6.30;;
4547;SDS011;2286;51.570;7.090;2024-01-30T11:54:59;12.30;;;6.40;;
4547;SDS011;2286;51.570;7.090;2024-01-30T11:57:27;12.03;;;5.90;;
4547;SDS011;2286;51.570;7.090;2024-01-30T11:59:54;8.33;;;6.30;;
4547;SDS011;2286;51.570;7.090;2024-01-30T12:02:21;11.80;;;6.50;;
4547;SDS011;2286;51.570;7.090;2024-01-30T12:04:49;7.90;;;6.17;;
4547;SDS011;2286;51.570;7.090;2024-01-30T12:07:17;10.53;;;6.53;;
4547;SDS011;2286;51.570;7.090;2024-01-30T12:09:51;7.57;;;5.90;;
4547;SDS011;2286;51.570;7.090;2024-01-30T12:12:19;8.97;;;6.30;;
4547;SDS011;2286;51.570;7.090;2024-01-30T12:14:47;13.73;;;6.97;;
4547;SDS011;2286;51.570;7.090;2024-01-30T12:17:22;13.90;;;7.03;;
4547;SDS011;2286;51.570;7.090;2024-01-30T12:19:50;9.23;;;6.63;;
4547;SDS011;2286;51.570;7.090;2024-01-30T12:22:21;14.60;;;7.40;;
4547;SDS011;2286;51.570;7.090;2024-01-30T12:24:48;16.90;;;6.30;;
4547;SDS011;2286;51.570;7.090;2024-01-30T12:27:15;23.47;;;7.17;;
4547;SDS011;2286;51.570;7.090;2024-01-30T12:29:42;9.83;;;6.33;;
4547;SDS011;2286;51.570;7.090;2024-01-30T12:32:14;9.00;;;6.30;;
4547;SDS011;2286;51.570;7.090;2024-01-30T12:34:41;11.20;;;6.10;;
4547;SDS011;2286;51.570;7.090;2024-01-30T12:37:08;11.90;;;7.63;;
4547;SDS011;2286;51.570;7.090;2024-01-30T12:39:38;10.53;;;6.20;;
4547;SDS011;2286;51.570;7.090;2024-01-30T12:42:05;12.40;;;7.40;;
4547;SDS011;2286;51.570;7.090;2024-01-30T12:44:32;10.43;;;6.10;;
4547;SDS011;2286;51.570;7.090;2024-01-30T12:47:02;11.80;;;7.03;;
4547;SDS011;2286;51.570;7.090;2024-01-30T12:49:29;9.00;;;6.20;;
4547;SDS011;2286;51.570;7.090;2024-01-30T12:51:56;10.17;;;7.60;;
4547;SDS011;2286;51.570;7.090;2024-01-30T12:54:24;15.43;;;6.10;;
4547;SDS011;2286;51.570;7.090;2024-01-30T12:56:53;9.53;;;6.50;;
4547;SDS011;2286;51.570;7.090;2024-01-30T12:59:21;8.67;;;5.20;;
4547;SDS011;2286;51.570;7.090;2024-01-30T13:01:48;10.67;;;6.57;;
4547;SDS011;2286;51.570;7.090;2024-01-30T13:04:15;9.63;;;6.10;;
4547;SDS011;2286;51.570;7.090;2024-01-30T13:06:42;11.23;;;6.50;;
4547;SDS011;2286;51.570;7.090;2024-01-30T13:09:09;11.67;;;6.77;;
4547;SDS011;2286;51.570;7.090;2024-01-30T13:11:36;11.33;;;6.80;;
4547;SDS011;2286;51.570;7.090;2024-01-30T13:14:04;7.90;;;7.10;;
4547;SDS011;2286;51.570;7.090;2024-01-30T13:16:32;8.87;;;6.63;;
4547;SDS011;2286;51.570;7.090;2024-01-30T13:19:02;10.47;;;7.60;;
4547;SDS011;2286;51.570;7.090;2024-01-30T13:21:37;14.00;;;7.30;;
4547;SDS011;2286;51.570;7.090;2024-01-30T13:24:05;12.23;;;7.73;;
4547;SDS011;2286;51.570;7.090;2024-01-30T13:26:32;10.80;;;7.27;;
4547;SDS011;2286;51.570;7.090;2024-01-30T13:28:59;9.83;;;6.70;;
4547;SDS011;2286;51.570;7.090;2024-01-30T13:31:28;13.10;;;7.23;;
4547;SDS011;2286;51.570;7.090;2024-01-30T13:33:55;14.33;;;8.53;;
4547;SDS011;2286;51.570;7.090;2024-01-30T13:36:22;13.90;;;7.50;;
4547;SDS011;2286;51.570;7.090;2024-01-30T13:38:49;11.77;;;6.67;;
4547;SDS011;2286;51.570;7.090;2024-01-30T13:41:16;12.63;;;6.90;;
4547;SDS011;2286;51.570;7.090;2024-01-30T13:43:43;11.80;;;7.00;;
4547;SDS011;2286;51.570;7.090;2024-01-30T13:46:10;13.67;;;7.53;;
4547;SDS011;2286;51.570;7.090;2024-01-30T13:48:39;12.63;;;7.17;;
4547;SDS011;2286;51.570;7.090;2024-01-30T13:51:06;9.93;;;7.43;;
4547;SDS011;2286;51.570;7.090;2024-01-30T13:53:33;10.27;;;7.57;;
4547;SDS011;2286;51.570;7.090;2024-01-30T13:56:00;11.67;;;7.13;;
4547;SDS011;2286;51.570;7.090;2024-01-30T13:58:27;13.10;;;7.30;;
4547;SDS011;2286;51.570;7.090;2024-01-30T14:00:54;10.20;;;7.17;;
4547;SDS011;2286;51.570;7.090;2024-01-30T14:03:21;9.63;;;6.90;;
4547;SDS011;2286;51.570;7.090;2024-01-30T14:05:49;13.77;;;7.90;;
4547;SDS011;2286;51.570;7.090;2024-01-30T14:08:16;8.87;;;7.43;;
4547;SDS011;2286;51.570;7.090;2024-01-30T14:10:43;10.17;;;7.63;;
4547;SDS011;2286;51.570;7.090;2024-01-30T14:13:10;9.93;;;6.50;;
4547;SDS011;2286;51.570;7.090;2024-01-30T14:15:37;10.43;;;8.20;;
4547;SDS011;2286;51.570;7.090;2024-01-30T14:18:04;12.27;;;7.27;;
4547;SDS011;2286;51.570;7.090;2024-01-30T14:20:33;12.23;;;7.47;;
4547;SDS011;2286;51.570;7.090;2024-01-30T14:23:01;8.60;;;6.83;;
4547;SDS011;2286;51.570;7.090;2024-01-30T14:25:29;12.80;;;8.00;;
4547;SDS011;2286;51.570;7.090;2024-01-30T14:27:55;17.00;;;8.07;;
4547;SDS011;2286;51.570;7.090;2024-01-30T14:30:22;12.03;;;6.70;;
4547;SDS011;2286;51.570;7.090;2024-01-30T14:32:50;11.00;;;7.00;;
4547;SDS011;2286;51.570;7.090;2024-01-30T14:35:17;11.70;;;7.70;;
4547;SDS011;2286;51.570;7.090;2024-01-30T14:37:45;10.20;;;7.60;;
4547;SDS011;2286;51.570;7.090;2024-01-30T14:40:13;10.63;;;6.60;;
4547;SDS011;2286;51.570;7.090;2024-01-30T14:42:40;12.13;;;7.67;;
4547;SDS011;2286;51.570;7.090;2024-01-30T14:45:08;8.40;;;6.67;;
4547;SDS011;2286;51.570;7.090;2024-01-30T14:47:38;19.50;;;7.93;;
4547;SDS011;2286;51.570;7.090;2024-01-30T14:50:06;11.00;;;6.73;;
4547;SDS011;2286;51.570;7.090;2024-01-30T14:52:33;9.53;;;6.80;;
4547;SDS011;2286;51.570;7.090;2024-01-30T14:55:01;9.33;;;7.17;;
4547;SDS011;2286;51.570;7.090;2024-01-30T14:57:29;9.10;;;6.63;;
4547;SDS011;2286;51.570;7.090;2024-01-30T14:59:56;10.60;;;6.77;;